JRLK1: John Redmond Lake

Data processed at Wed May 22 2019 23:50


All information presented herein is the property of the government of the United States of America and may be revised or deleted at any time without prior notice.
Dissemination of this information without the expressed written consent of the Public Affairs Office, Tulsa District U.S. Army Corps of Engineers is strictly prohibited.
These data are gathered electronically and, as presented, have not undergone any form of quality control. These data are not guaranteed to be valid or correct.
Go to home page.
Go to station list.
Go to home page.

Upstream stations:

Downstream station:
Previous Day
Next Day
Current Day
    
SHEF ID:       JRLK1     John Redmond Lake
STATION TYPE:  RESERVOIR
Flood Pool:  Bottom =  1041.00, Top =  1068.00

               PRECIP PRECIP(A) ELEVATION   STORAGE    INFLOW   RELEASE  AIR-TEMP  WIND-DIRWIND-SPEED REL-HUMID SOLAR-RAD   VOLTAGE  BAT-LOAD
                   in        in        ft     ac-ft       cfs       cfs         F       deg       mph         %      W/m2      volt      volt
              Ccp-Rev   Ccp-Rev   Ccp-Rev   Ccp-Rev  Rev-Regi  Rev-Regi   Ccp-Rev   Ccp-Rev   Ccp-Rev   Ccp-Rev   Ccp-Rev   Ccp-Rev   Ccp-Rev
(US/Central)
05/22 00:00      0.00      ----   1065.72    505797     30857     18685     61.47    195.30      9.20     71.66      0.00     12.78     12.52
05/22 01:00      0.00      ----   1065.75    506630     28647     19306     59.65    187.20      6.50     76.64      0.00     12.76     12.50
05/22 02:00      0.00      ----   1065.78    507463     28417     19846     59.18    186.00      6.30     76.40      0.00     12.75     12.47
05/22 03:00      0.00      ----   1065.79    507740     28811     20176     57.88    172.60      5.30     79.03      0.00     12.72     12.45
05/22 04:00      0.00      ----   1065.82    508573     28454     20406     55.90    163.30      4.00     84.94      0.00     12.70     12.44
05/22 05:00      0.00      ----   1065.85    509406     28692     20653     53.96    189.30      5.00     91.39      0.00     12.68     12.42
05/22 06:00      0.00      ----   1065.87    509961     30229     20882     53.29    193.80      6.30     92.53      0.00     12.67     12.38
05/22 07:00      0.00      ----   1065.90    510794     29060     21034     54.00    222.90      7.80     86.97     37.90     12.71     12.38
05/22 08:00      0.00      ----   1065.93    511627     27893     21146     54.27    236.70     10.40     81.05    226.60     13.10     12.58
05/22 09:00      0.00      ----   1065.94    511904     27423     21280     55.09    226.40      8.90     75.43    438.60     13.51     13.03
05/22 10:00      0.00      ----   1065.95    512182     26995     21534     57.34    223.70      6.90     69.71    636.30     13.46     13.24
05/22 11:00      0.00      ----   1065.96    512460     25925     21889     61.47    191.60      7.00     64.17    810.60     13.47     13.16
05/22 12:00      0.00      ----   1065.98    513015     26925     22253     65.07    194.00      9.50     61.57    931.60     13.85     13.12
05/22 13:00      0.00      ----   1065.99    513292     27973     22518     68.11    196.00     10.60     61.78    983.50     13.98     13.16
05/22 14:00      0.00      ----   1066.01    513860     29705     22770     70.00    205.80     12.40     66.00    682.10     13.41     13.12
05/22 15:00      0.00      ----   1066.03    514440     30027     23117     70.79    205.60     11.10     67.91    386.10     13.43     13.09
05/22 16:00      0.07      ----   1066.06    515309     32407     23386     65.88    159.80     11.10     90.45    101.80     13.09     12.91
05/22 17:00      0.21      ----   1066.08    515889     33379     23563     63.88    151.80      6.60     98.23     90.00     13.27     12.86
05/22 18:00      0.00      ----   1066.12    517049     35696     23748     65.23    117.90      3.20     96.89    112.20     13.41     12.91
05/22 19:00      0.00      ----   1066.15    517918     36574     23972     65.46     61.30      2.20     97.34     60.40     13.01     12.80
05/22 20:00      0.00      ----   1066.20    519368     36748     24178     65.79    356.50      3.10     94.88     50.70     12.95     12.73
05/22 21:00      0.00      ----   1066.24    520528     36919     24268     65.68    335.50      5.60     94.92      0.50     12.86     12.59
05/22 22:00      0.00      ----   1066.26    521107     36311     24436     66.72     29.10      7.10     77.70      0.00     12.83     12.57
05/22 23:00      0.00      ----   1066.30    522267     37131     24603     65.44    334.10      4.30     82.79      0.00     12.82     12.54